createdAt,value
2018-08-24T00:00:04.804Z,4.30
2018-08-24T00:02:39.194Z,4.17
2018-08-24T00:05:13.913Z,4.37
2018-08-24T00:07:48.562Z,6.23
2018-08-24T00:10:23.448Z,3.90
2018-08-24T00:12:58.160Z,5.13
2018-08-24T00:15:33.117Z,4.33
2018-08-24T00:18:07.510Z,7.47
2018-08-24T00:20:42.040Z,4.40
2018-08-24T00:23:16.845Z,4.87
2018-08-24T00:25:51.736Z,5.50
2018-08-24T00:28:26.732Z,4.70
2018-08-24T00:31:01.880Z,4.90
2018-08-24T00:33:36.616Z,4.23
2018-08-24T00:36:11.080Z,3.50
2018-08-24T00:38:45.716Z,3.77
2018-08-24T00:41:20.301Z,4.00
2018-08-24T00:43:54.931Z,4.17
2018-08-24T00:46:29.465Z,3.70
2018-08-24T00:49:04.087Z,4.70
2018-08-24T00:51:38.884Z,4.33
2018-08-24T00:54:13.612Z,3.50
2018-08-24T00:56:48.022Z,3.63
2018-08-24T00:59:22.789Z,3.53
2018-08-24T01:01:57.414Z,3.93
2018-08-24T01:04:32.671Z,3.30
2018-08-24T01:07:12.597Z,5.33
2018-08-24T01:09:47.329Z,3.50
2018-08-24T01:12:22.528Z,3.67
2018-08-24T01:14:58.041Z,3.57
2018-08-24T01:17:38.177Z,3.30
2018-08-24T01:20:12.955Z,4.97
2018-08-24T01:22:47.524Z,3.20
2018-08-24T01:25:22.259Z,4.07
2018-08-24T01:27:56.878Z,3.63
2018-08-24T01:30:31.323Z,13.30
2018-08-24T01:33:06.025Z,4.13
2018-08-24T01:35:40.736Z,3.53
2018-08-24T01:38:15.580Z,3.30
2018-08-24T01:40:50.572Z,2.80
2018-08-24T01:43:26.008Z,3.17
2018-08-24T01:46:06.436Z,2.97
2018-08-24T01:48:42.184Z,2.90
2018-08-24T01:51:17.109Z,3.70
2018-08-24T01:53:51.813Z,3.57
2018-08-24T01:56:26.415Z,5.80
2018-08-24T01:59:01.092Z,4.00
2018-08-24T02:01:35.852Z,4.00
2018-08-24T02:04:10.485Z,3.80
2018-08-24T02:06:44.957Z,3.93
2018-08-24T02:09:22.678Z,3.10
2018-08-24T02:11:58.496Z,3.90
2018-08-24T02:14:40.686Z,3.20
2018-08-24T02:17:20.720Z,3.20
2018-08-24T02:20:01.471Z,4.13
2018-08-24T02:22:36.392Z,3.83
2018-08-24T02:25:10.906Z,4.17
2018-08-24T02:27:45.600Z,2.60
2018-08-24T02:30:21.446Z,7.63
2018-08-24T02:32:55.954Z,3.97
2018-08-24T02:35:30.533Z,3.10
2018-08-24T02:38:05.051Z,4.57
2018-08-24T02:40:39.771Z,4.73
2018-08-24T02:43:14.320Z,3.73
2018-08-24T02:45:48.983Z,3.40
2018-08-24T02:48:23.557Z,3.53
2018-08-24T02:50:59.296Z,4.63
2018-08-24T02:53:33.788Z,4.03
2018-08-24T02:56:08.444Z,3.73
2018-08-24T02:58:43.169Z,4.10
2018-08-24T03:01:17.801Z,12.70
2018-08-24T03:03:52.554Z,5.20
2018-08-24T03:06:27.313Z,3.47
2018-08-24T03:09:01.928Z,5.00
2018-08-24T03:11:36.811Z,8.17
2018-08-24T03:14:11.392Z,5.77
2018-08-24T03:16:52.013Z,7.90
2018-08-24T03:19:27.040Z,4.20
2018-08-24T03:22:01.742Z,4.70
2018-08-24T03:24:36.285Z,4.83
2018-08-24T03:27:11.090Z,4.93
2018-08-24T03:29:45.716Z,7.23
2018-08-24T03:32:20.520Z,4.90
2018-08-24T03:34:55.168Z,4.57
2018-08-24T03:37:30.000Z,4.17
2018-08-24T03:40:05.260Z,5.20
2018-08-24T03:42:40.172Z,4.97
2018-08-24T03:45:14.647Z,5.30
2018-08-24T03:47:49.237Z,4.83
2018-08-24T03:50:24.069Z,5.70
2018-08-24T03:52:59.724Z,5.23
2018-08-24T03:55:36.502Z,5.03
2018-08-24T03:58:11.481Z,5.57
2018-08-24T04:00:46.236Z,4.70
2018-08-24T04:03:20.746Z,5.13
2018-08-24T04:05:55.401Z,4.10
2018-08-24T04:08:30.097Z,4.67
2018-08-24T04:11:04.880Z,5.70
2018-08-24T04:13:39.364Z,4.03
2018-08-24T04:16:14.669Z,5.03
2018-08-24T04:18:49.062Z,8.13
2018-08-24T04:21:23.941Z,4.20
2018-08-24T04:23:58.600Z,4.57
2018-08-24T04:26:32.876Z,8.80
2018-08-24T04:29:07.505Z,5.20
2018-08-24T04:31:42.196Z,6.40
2018-08-24T04:34:16.958Z,5.57
2018-08-24T04:36:51.389Z,5.23
2018-08-24T04:39:26.160Z,9.00
2018-08-24T04:42:00.973Z,6.67
2018-08-24T04:44:36.072Z,5.33
2018-08-24T04:47:10.311Z,5.70
2018-08-24T04:49:45.067Z,5.20
2018-08-24T04:52:20.000Z,4.47
2018-08-24T04:54:54.587Z,4.73
2018-08-24T04:57:29.039Z,4.40
2018-08-24T05:00:04.865Z,4.63
2018-08-24T05:02:39.574Z,8.47
2018-08-24T05:05:14.633Z,4.77
2018-08-24T05:07:48.973Z,5.27
2018-08-24T05:10:23.755Z,4.47
2018-08-24T05:12:58.464Z,5.53
2018-08-24T05:15:33.576Z,5.40
2018-08-24T05:18:07.707Z,7.53
2018-08-24T05:20:42.518Z,4.43
2018-08-24T05:23:17.216Z,4.50
2018-08-24T05:25:51.904Z,4.67
2018-08-24T05:28:26.697Z,5.10
2018-08-24T05:31:01.269Z,7.70
2018-08-24T05:33:35.924Z,6.10
2018-08-24T05:36:10.659Z,9.03
2018-08-24T05:38:45.171Z,4.20
2018-08-24T05:41:19.868Z,9.53
2018-08-24T05:43:54.214Z,10.97
2018-08-24T05:46:29.219Z,6.10
2018-08-24T05:49:04.256Z,7.37
2018-08-24T05:51:39.241Z,5.63
2018-08-24T05:54:13.552Z,4.83
2018-08-24T05:56:48.177Z,4.27
2018-08-24T05:59:22.618Z,7.70
2018-08-24T06:01:57.346Z,4.60
2018-08-24T06:04:31.952Z,4.50
2018-08-24T06:07:06.550Z,5.10
2018-08-24T06:09:41.136Z,7.03
2018-08-24T06:12:15.889Z,4.60
2018-08-24T06:14:50.562Z,6.20
2018-08-24T06:17:30.437Z,5.30
2018-08-24T06:20:05.513Z,5.10
2018-08-24T06:22:40.172Z,3.63
2018-08-24T06:25:14.888Z,7.70
2018-08-24T06:27:49.631Z,4.97
2018-08-24T06:30:24.228Z,4.20
2018-08-24T06:32:58.835Z,4.60
2018-08-24T06:35:33.272Z,4.77
2018-08-24T06:38:08.299Z,3.40
2018-08-24T06:40:43.188Z,4.13
2018-08-24T06:43:19.910Z,4.40
2018-08-24T06:45:54.751Z,4.40
2018-08-24T06:48:29.560Z,3.80
2018-08-24T06:51:04.706Z,4.57
2018-08-24T06:53:39.989Z,3.70
2018-08-24T06:56:14.504Z,3.67
2018-08-24T06:58:49.102Z,3.80
2018-08-24T07:01:23.661Z,5.30
2018-08-24T07:03:58.310Z,3.00
2018-08-24T07:06:33.286Z,3.37
2018-08-24T07:09:09.136Z,3.97
2018-08-24T07:11:44.247Z,2.90
2018-08-24T07:14:18.781Z,4.83
2018-08-24T07:16:58.008Z,5.33
2018-08-24T07:19:32.367Z,5.90
2018-08-24T07:22:07.197Z,4.57
2018-08-24T07:24:41.585Z,3.47
2018-08-24T07:27:16.162Z,3.90
2018-08-24T07:29:50.876Z,3.47
2018-08-24T07:32:25.184Z,4.33
2018-08-24T07:34:59.777Z,5.20
2018-08-24T07:37:34.199Z,8.53
2018-08-24T07:40:08.989Z,4.33
2018-08-24T07:42:43.835Z,3.97
2018-08-24T07:45:18.049Z,5.53
2018-08-24T07:47:52.559Z,5.03
2018-08-24T07:50:27.014Z,4.43
2018-08-24T07:53:01.775Z,5.30
2018-08-24T07:55:36.770Z,3.63
2018-08-24T07:58:11.233Z,3.57
2018-08-24T08:00:46.017Z,3.90
2018-08-24T08:03:20.411Z,4.73
2018-08-24T08:05:55.343Z,4.60
2018-08-24T08:08:29.868Z,6.93
2018-08-24T08:11:04.870Z,3.60
2018-08-24T08:13:39.933Z,4.43
2018-08-24T08:16:14.701Z,4.10
2018-08-24T08:18:49.060Z,8.20
2018-08-24T08:21:23.941Z,9.20
2018-08-24T08:23:59.328Z,3.57
2018-08-24T08:26:34.209Z,3.93
2018-08-24T08:29:13.397Z,6.20
2018-08-24T08:31:47.755Z,4.70
2018-08-24T08:34:22.132Z,7.10
2018-08-24T08:36:57.336Z,6.33
2018-08-24T08:39:32.206Z,3.40
2018-08-24T08:42:06.982Z,4.30
2018-08-24T08:44:41.487Z,4.47
2018-08-24T08:47:16.181Z,4.27
2018-08-24T08:49:51.022Z,4.93
2018-08-24T08:52:25.699Z,3.67
2018-08-24T08:55:00.289Z,3.93
2018-08-24T08:57:35.080Z,3.90
2018-08-24T09:00:09.690Z,4.43
2018-08-24T09:02:44.365Z,3.90
2018-08-24T09:05:19.100Z,4.30
2018-08-24T09:07:53.873Z,3.20
2018-08-24T09:10:28.649Z,4.47
2018-08-24T09:13:03.828Z,8.33
2018-08-24T09:15:38.510Z,6.17
2018-08-24T09:18:18.942Z,3.17
2018-08-24T09:20:59.220Z,6.73
2018-08-24T09:23:39.345Z,9.10
2018-08-24T09:26:19.722Z,5.50
2018-08-24T09:28:55.673Z,3.20
2018-08-24T09:31:32.145Z,4.03
2018-08-24T09:34:06.944Z,4.40
2018-08-24T09:36:41.226Z,6.07
2018-08-24T09:39:16.252Z,7.50
2018-08-24T09:41:50.413Z,5.73
2018-08-24T09:44:25.190Z,3.93
2018-08-24T09:47:05.131Z,14.20
2018-08-24T09:49:40.351Z,4.30
2018-08-24T09:52:20.002Z,4.33
2018-08-24T09:54:54.288Z,13.60
2018-08-24T09:57:28.730Z,8.27
2018-08-24T10:00:03.750Z,5.53
2018-08-24T10:02:41.885Z,8.10
2018-08-24T10:05:22.382Z,5.53
2018-08-24T10:08:02.706Z,5.13
2018-08-24T10:10:37.649Z,5.40
2018-08-24T10:13:12.407Z,6.73
2018-08-24T10:15:47.126Z,6.60
2018-08-24T10:18:21.545Z,6.20
2018-08-24T10:20:56.471Z,6.43
2018-08-24T10:23:30.784Z,6.20
2018-08-24T10:26:05.717Z,7.60
2018-08-24T10:28:40.604Z,6.60
2018-08-24T10:31:17.215Z,6.33
2018-08-24T10:33:51.354Z,6.67
2018-08-24T10:36:25.777Z,6.40
2018-08-24T10:39:00.385Z,7.83
2018-08-24T10:41:35.167Z,5.80
2018-08-24T10:44:09.713Z,7.40
2018-08-24T10:46:44.546Z,8.00
2018-08-24T10:49:19.157Z,8.17
2018-08-24T10:51:53.876Z,6.30
2018-08-24T10:54:28.525Z,6.17
2018-08-24T10:57:03.437Z,5.70
2018-08-24T10:59:37.816Z,4.80
2018-08-24T11:02:12.760Z,6.73
2018-08-24T11:04:47.155Z,5.50
2018-08-24T11:07:21.934Z,8.30
2018-08-24T11:09:56.563Z,7.17
2018-08-24T11:12:32.436Z,7.13
2018-08-24T11:15:06.841Z,6.40
2018-08-24T11:17:47.318Z,7.10
2018-08-24T11:20:22.441Z,7.53
2018-08-24T11:22:57.020Z,6.87
2018-08-24T11:25:32.790Z,5.47
2018-08-24T11:28:08.487Z,16.60
2018-08-24T11:30:43.065Z,7.77
2018-08-24T11:33:17.840Z,5.37
2018-08-24T11:35:52.338Z,7.80
2018-08-24T11:38:27.347Z,5.30
2018-08-24T11:41:01.797Z,4.87
2018-08-24T11:43:36.404Z,7.47
2018-08-24T11:46:11.241Z,5.03
2018-08-24T11:48:45.916Z,4.87
2018-08-24T11:51:20.530Z,4.20
2018-08-24T11:53:55.730Z,10.90
2018-08-24T11:56:29.936Z,8.67
2018-08-24T11:59:04.858Z,6.10
2018-08-24T12:01:39.979Z,7.40
2018-08-24T12:04:14.360Z,6.73
2018-08-24T12:06:48.985Z,7.07
2018-08-24T12:09:23.685Z,6.30
2018-08-24T12:11:58.298Z,6.13
2018-08-24T12:14:33.241Z,6.97
2018-08-24T12:17:09.065Z,7.97
2018-08-24T12:19:44.121Z,6.90
2018-08-24T12:22:19.023Z,7.87
2018-08-24T12:24:53.942Z,5.60
2018-08-24T12:27:28.301Z,7.03
2018-08-24T12:30:03.521Z,5.73
2018-08-24T12:32:37.652Z,5.73
2018-08-24T12:35:12.281Z,9.13
2018-08-24T12:37:47.599Z,9.13
2018-08-24T12:40:22.660Z,5.40
2018-08-24T12:42:57.040Z,5.77
2018-08-24T12:45:31.861Z,7.33
2018-08-24T12:48:06.636Z,6.10
2018-08-24T12:50:42.301Z,5.77
2018-08-24T12:53:16.853Z,4.90
2018-08-24T12:55:53.970Z,5.90
2018-08-24T12:58:29.096Z,5.80
2018-08-24T13:01:03.900Z,7.17
2018-08-24T13:03:38.226Z,5.17
2018-08-24T13:06:12.918Z,7.03
2018-08-24T13:08:47.671Z,7.07
2018-08-24T13:11:22.464Z,7.63
2018-08-24T13:13:57.336Z,11.17
2018-08-24T13:16:33.053Z,6.10
2018-08-24T13:19:07.777Z,6.33
2018-08-24T13:21:42.337Z,5.40
2018-08-24T13:24:16.633Z,5.87
2018-08-24T13:26:51.261Z,7.20
2018-08-24T13:29:25.832Z,7.07
2018-08-24T13:32:00.740Z,6.03
2018-08-24T13:34:36.082Z,7.77
2018-08-24T13:37:10.640Z,6.70
2018-08-24T13:39:45.632Z,5.77
2018-08-24T13:42:19.886Z,5.97
2018-08-24T13:44:54.439Z,14.43
2018-08-24T13:47:28.895Z,5.73
2018-08-24T13:50:04.031Z,7.27
2018-08-24T13:52:40.559Z,7.80
2018-08-24T13:55:15.610Z,6.73
2018-08-24T13:57:50.822Z,7.40
2018-08-24T14:00:26.407Z,6.20
2018-08-24T14:03:03.184Z,6.77
2018-08-24T14:05:37.320Z,7.30
2018-08-24T14:08:11.866Z,6.53
2018-08-24T14:10:46.652Z,5.67
2018-08-24T14:13:21.382Z,5.50
2018-08-24T14:15:55.796Z,6.90
2018-08-24T14:18:30.832Z,5.70
2018-08-24T14:21:06.196Z,7.60
2018-08-24T14:23:40.519Z,9.83
2018-08-24T14:26:15.033Z,6.10
2018-08-24T14:28:50.840Z,8.07
2018-08-24T14:31:25.696Z,7.43
2018-08-24T14:34:00.369Z,7.23
2018-08-24T14:36:35.090Z,7.23
2018-08-24T14:39:10.584Z,6.80
2018-08-24T14:41:45.311Z,6.07
2018-08-24T14:44:20.035Z,7.00
2018-08-24T14:46:54.825Z,10.60
2018-08-24T14:49:29.285Z,8.43
2018-08-24T14:52:04.230Z,7.53
2018-08-24T14:54:38.554Z,5.83
2018-08-24T14:57:13.138Z,7.90
2018-08-24T14:59:47.647Z,7.20
2018-08-24T15:02:22.360Z,9.43
2018-08-24T15:04:56.841Z,12.80
2018-08-24T15:07:31.391Z,9.77
2018-08-24T15:10:06.324Z,11.23
2018-08-24T15:12:40.972Z,11.70
2018-08-24T15:15:15.329Z,11.17
2018-08-24T15:17:50.054Z,11.53
2018-08-24T15:20:24.503Z,11.43
2018-08-24T15:22:59.899Z,11.20
2018-08-24T15:25:36.020Z,14.00
2018-08-24T15:28:10.749Z,15.10
2018-08-24T15:30:45.175Z,10.87
2018-08-24T15:33:20.162Z,13.40
2018-08-24T15:35:54.562Z,17.50
2018-08-24T15:38:29.325Z,12.97
2018-08-24T15:41:03.713Z,16.33
2018-08-24T15:43:38.574Z,18.37
2018-08-24T15:46:14.149Z,11.33
2018-08-24T15:48:48.747Z,16.50
2018-08-24T15:51:23.329Z,16.40
2018-08-24T15:53:58.137Z,13.70
2018-08-24T15:56:33.176Z,13.60
2018-08-24T15:59:07.409Z,16.63
2018-08-24T16:01:42.244Z,15.67
2018-08-24T16:04:16.960Z,13.77
2018-08-24T16:06:51.357Z,18.67
2018-08-24T16:09:26.146Z,14.93
2018-08-24T16:12:01.531Z,12.57
2018-08-24T16:14:36.877Z,11.83
2018-08-24T16:17:11.325Z,11.30
2018-08-24T16:19:46.716Z,18.90
2018-08-24T16:22:21.723Z,10.33
2018-08-24T16:24:58.376Z,12.70
2018-08-24T16:27:33.804Z,8.83
2018-08-24T16:30:09.847Z,15.90
2018-08-24T16:32:44.520Z,8.53
2018-08-24T16:35:19.130Z,11.40
2018-08-24T16:37:53.679Z,9.07
2018-08-24T16:40:29.408Z,9.10
2018-08-24T16:43:04.438Z,9.57
2018-08-24T16:45:38.694Z,8.13
2018-08-24T16:48:13.150Z,9.13
2018-08-24T16:50:47.779Z,8.77
2018-08-24T16:53:22.349Z,11.27
2018-08-24T16:55:58.292Z,8.03
2018-08-24T16:58:33.016Z,7.50
2018-08-24T17:01:07.681Z,8.70
2018-08-24T17:03:42.107Z,9.63
2018-08-24T17:06:16.992Z,10.00
2018-08-24T17:08:51.595Z,12.17
2018-08-24T17:11:26.308Z,9.53
2018-08-24T17:14:00.759Z,10.00
2018-08-24T17:16:35.721Z,6.93
2018-08-24T17:19:10.189Z,7.20
2018-08-24T17:21:45.124Z,8.07
2018-08-24T17:24:19.428Z,7.47
2018-08-24T17:26:54.020Z,9.77
2018-08-24T17:29:28.746Z,8.80
2018-08-24T17:32:04.950Z,9.57
2018-08-24T17:37:19.197Z,9.57
2018-08-24T17:39:54.012Z,7.33
2018-08-24T17:42:28.633Z,11.70
2018-08-24T17:45:03.413Z,8.27
2018-08-24T17:47:38.052Z,10.43
2018-08-24T17:50:12.619Z,8.10
2018-08-24T17:52:47.652Z,11.43
2018-08-24T17:55:23.008Z,7.87
2018-08-24T17:57:57.637Z,7.30
2018-08-24T18:00:33.292Z,7.60
2018-08-24T18:03:07.822Z,12.43
2018-08-24T18:05:43.442Z,5.70
2018-08-24T18:08:18.168Z,7.47
2018-08-24T18:10:52.614Z,9.10
2018-08-24T18:13:27.526Z,10.33
2018-08-24T18:16:02.052Z,8.47
2018-08-24T18:18:37.412Z,7.60
2018-08-24T18:21:11.792Z,11.03
2018-08-24T18:23:46.794Z,7.30
2018-08-24T18:26:21.270Z,12.57
2018-08-24T18:28:56.257Z,12.00
2018-08-24T18:31:30.870Z,9.50
2018-08-24T18:34:05.885Z,13.30
2018-08-24T18:36:40.562Z,11.37
2018-08-24T18:39:15.554Z,11.53
2018-08-24T18:41:50.028Z,9.37
2018-08-24T18:44:24.844Z,14.80
2018-08-24T18:46:59.875Z,12.80
2018-08-24T18:49:35.891Z,10.60
2018-08-24T18:52:11.770Z,9.63
2018-08-24T18:54:46.692Z,10.20
2018-08-24T18:57:21.146Z,11.73
2018-08-24T18:59:55.752Z,11.97
2018-08-24T19:02:31.346Z,12.23
2018-08-24T19:05:05.999Z,13.70
2018-08-24T19:07:40.663Z,11.80
2018-08-24T19:10:15.394Z,11.47
2018-08-24T19:12:50.555Z,13.77
2018-08-24T19:15:24.970Z,11.07
2018-08-24T19:18:05.569Z,11.33
2018-08-24T19:21:45.190Z,13.43
2018-08-24T19:24:19.691Z,15.10
2018-08-24T19:26:54.302Z,12.50
2018-08-24T19:29:34.931Z,12.67
2018-08-24T19:32:09.932Z,12.40
2018-08-24T19:34:44.661Z,10.23
2018-08-24T19:37:19.305Z,13.80
2018-08-24T19:39:59.716Z,9.87
2018-08-24T19:42:34.613Z,11.50
2018-08-24T19:45:09.588Z,11.33
2018-08-24T19:47:49.726Z,8.53
2018-08-24T19:50:24.977Z,9.77
2018-08-24T19:52:59.485Z,9.50
2018-08-24T19:55:34.180Z,12.10
2018-08-24T19:58:14.284Z,11.83
2018-08-24T20:00:49.669Z,14.23
2018-08-24T20:03:24.933Z,13.40
2018-08-24T20:06:05.788Z,13.30
2018-08-24T20:08:46.167Z,12.47
2018-08-24T20:11:21.710Z,10.93
2018-08-24T20:13:56.802Z,16.63
2018-08-24T20:16:36.964Z,12.43
2018-08-24T20:19:12.109Z,14.57
2018-08-24T20:21:48.590Z,10.97
2018-08-24T20:24:23.675Z,14.67
2018-08-24T20:26:58.355Z,20.77
2018-08-24T20:29:33.183Z,15.60
2018-08-24T20:32:07.785Z,16.63
2018-08-24T20:34:43.065Z,18.23
2018-08-24T20:37:18.383Z,16.10
2018-08-24T20:39:52.944Z,11.73
2018-08-24T20:42:27.862Z,13.20
2018-08-24T20:45:02.408Z,14.00
2018-08-24T20:47:37.022Z,16.20
2018-08-24T20:50:11.852Z,15.60
2018-08-24T20:52:46.872Z,15.10
2018-08-24T20:55:21.415Z,14.70
2018-08-24T20:57:55.837Z,23.13
2018-08-24T21:00:30.642Z,14.23
2018-08-24T21:03:06.257Z,15.20
2018-08-24T21:05:41.460Z,17.30
2018-08-24T21:08:15.628Z,14.40
2018-08-24T21:10:50.489Z,16.03
2018-08-24T21:13:25.164Z,17.67
2018-08-24T21:15:59.835Z,16.80
2018-08-24T21:18:34.567Z,12.50
2018-08-24T21:21:09.399Z,15.17
2018-08-24T21:23:43.823Z,14.27
2018-08-24T21:26:18.274Z,14.60
2018-08-24T21:28:52.958Z,15.00
2018-08-24T21:31:27.585Z,12.90
2018-08-24T21:34:02.283Z,15.30
2018-08-24T21:36:37.046Z,14.60
2018-08-24T21:39:12.275Z,18.93
2018-08-24T21:41:47.440Z,16.60
2018-08-24T21:44:21.824Z,18.87
2018-08-24T21:46:57.080Z,14.77
2018-08-24T21:49:31.460Z,20.50
2018-08-24T21:52:06.122Z,20.70
2018-08-24T21:54:41.001Z,17.87
2018-08-24T21:57:15.600Z,18.63
2018-08-24T21:59:50.086Z,18.43
2018-08-24T22:02:25.061Z,19.17
2018-08-24T22:04:59.391Z,18.40
2018-08-24T22:07:34.246Z,15.77
2018-08-24T22:10:08.600Z,14.17
2018-08-24T22:12:43.314Z,19.70
2018-08-24T22:15:17.861Z,16.00
2018-08-24T22:17:52.844Z,18.97
2018-08-24T22:20:27.109Z,14.20
2018-08-24T22:23:02.344Z,24.97
2018-08-24T22:25:36.977Z,19.90
2018-08-24T22:28:11.610Z,18.83
2018-08-24T22:30:46.248Z,17.27
2018-08-24T22:33:21.429Z,21.53
2018-08-24T22:35:56.773Z,21.73
2018-08-24T22:38:31.153Z,22.40
2018-08-24T22:41:06.083Z,19.63
2018-08-24T22:43:41.093Z,17.17
2018-08-24T22:46:15.553Z,18.00
2018-08-24T22:48:50.252Z,17.87
2018-08-24T22:51:24.965Z,18.73
2018-08-24T22:53:59.673Z,17.33
2018-08-24T22:56:34.245Z,18.33
2018-08-24T22:59:09.093Z,17.73
2018-08-24T23:01:43.916Z,23.00
2018-08-24T23:04:18.218Z,20.50
2018-08-24T23:06:52.842Z,19.37
2018-08-24T23:09:27.673Z,18.47
2018-08-24T23:12:02.276Z,25.00
2018-08-24T23:14:37.127Z,15.90
2018-08-24T23:17:12.954Z,18.27
2018-08-24T23:19:48.260Z,16.73
2018-08-24T23:22:22.626Z,19.80
2018-08-24T23:24:57.538Z,21.53
2018-08-24T23:27:32.376Z,20.60
2018-08-24T23:30:07.844Z,19.60
2018-08-24T23:32:42.052Z,19.60
2018-08-24T23:35:16.989Z,16.27
2018-08-24T23:37:51.565Z,17.57
2018-08-24T23:40:26.328Z,21.40
2018-08-24T23:43:00.698Z,17.93
2018-08-24T23:45:36.500Z,17.63
2018-08-24T23:48:10.996Z,21.37
2018-08-24T23:50:45.912Z,14.70
2018-08-24T23:53:20.503Z,21.93
2018-08-24T23:55:55.037Z,19.20
2018-08-24T23:58:29.648Z,19.83
